Santa Barbara, CA

9:00 PM PDT on September 01, 2014 (GMT -0700)
Westside (Gillespie) | Change Station
CLOSE
Current Station
Personal Weather Station
Location: Santa Barbara, CA
Elevation: 85 ft
Nearby Weather Stations

Elev 85 ft 34.42 °N, 119.72 °W | Updated 4 seconds ago

Clear
Clear
65.5 °F
Feels Like 65.5 °F
N
0.7
Wind Variable Wind from East
Gusts 1.6 mph

Today
High -- | Low -- °F
--% Chance of Precip.
Yesterday
High -- | Low -- °F
Precip. -- in
6:32 AM 7:24 PM
Waxing Crescent, 47% visible
Pressure 29.79 in
Visibility 7.0 miles
Clouds Clear
Dew Point 62 °F
Humidity 87%
Rainfall 0.00 in
Snow Depth Not available.
UV 0 out of 12
Pollen 9.10 out of 12
PM2.5 Moderate
Flu Activity Not available.
METAR KSBA 020353Z 00000KT 7SM CLR 19/16 A2979 RMK AO2 SLP087 T01940161

More Conditions Fewer Conditions

Pressure 29.79 in
Visibility 7.0 miles
Clouds Clear
Dew Point 62 °F
Humidity 87%
Rainfall 0.00 in
Snow Depth Not available.
UV 0 out of 12
Pollen 9.10 out of 12
PM2.5 Moderate
Flu Activity Not available.
METAR KSBA 020353Z 00000KT 7SM CLR 19/16 A2979 RMK AO2 SLP087 T01940161

More Conditions Fewer Conditions

10-Day Weather Forecast

Almanac

Astronomy

Sep. 01, 2014 Rise Set
Actual Time 6:32 AM PDT 7:24 PM PDT
Civil Twilight 6:06 AM PDT 7:50 PM PDT
Nautical Twilight 5:36 AM PDT 8:20 PM PDT
Astronomical Twilight 5:04 AM PDT 8:51 PM PDT
Moon 1:05 PM PDT (9/1) 11:47 PM PDT (9/1)
Length of Visible Light 13h 43m
Length of Day
12h 52m
Tomorrow will be 2m 4s shorter.
Waxing Crescent, 47% of the Moon is Illuminated
Sep 2
Waxing Crescent
Sep 2
First Quarter
Sep 8
Full
Sep 15
Last Quarter
Sep 24
New

Today's Extremes

State Highs State Lows

Community

WunderPhotos

Upload Photos

1,749,558 photos uploaded!

WunderBlogs® & News

Nearby

Air Quality

  Air Quality AQ Index Pollutant
Yesterday Good
PM10
Yesterday Good
OZONE
Current Moderate
PM2.5
Monday Good
PM2.5
Monday Good
OZONE
Tuesday Good
PM2.5
Tuesday Good
OZONE

Snow Depth

Station Depth Elevation
Echo Peak 0 in 7800 ft
CSS Lab 1 in 6900 ft
Adin Mountain 1 in 6200 ft
Cedar Pass 0 in 7100 ft

Earthquake Activity

City Distance Mag. Time & Date
Malibu, California 59 miles 2.5 8:11 AM PDT
2014-08-30
Minimum magnitude displayed is 2.5.

Coastal Water Temperatures

Place Temperature
Santa Monica Pier 73.0 °F
Los Angeles, CA 71.1 °F
Port San Luis, CA 61.0 °F

Nearby Weather Stations